sensor_id;sensor_type;location;lat;lon;timestamp;pressure;altitude;pressure_sealevel;temperature;humidity
1832;BME280;1680;48.106;11.708;2023-02-17T00:02:08;96397.09;;;7.92;59.51
1832;BME280;1680;48.106;11.708;2023-02-17T00:04:35;96400.94;;;7.96;59.37
1832;BME280;1680;48.106;11.708;2023-02-17T00:07:02;96391.94;;;7.98;58.85
1832;BME280;1680;48.106;11.708;2023-02-17T00:09:30;96387.94;;;8.02;58.76
1832;BME280;1680;48.106;11.708;2023-02-17T00:11:57;96385.59;;;8.07;58.79
1832;BME280;1680;48.106;11.708;2023-02-17T00:14:26;96384.69;;;7.94;59.13
1832;BME280;1680;48.106;11.708;2023-02-17T00:16:53;96390.91;;;7.93;58.82
1832;BME280;1680;48.106;11.708;2023-02-17T00:19:20;96383.75;;;8.01;59.43
1832;BME280;1680;48.106;11.708;2023-02-17T00:21:52;96335.06;;;7.59;58.65
1832;BME280;1680;48.106;11.708;2023-02-17T00:24:20;96393.88;;;7.90;59.38
1832;BME280;1680;48.106;11.708;2023-02-17T00:26:48;96396.13;;;7.93;58.90
1832;BME280;1680;48.106;11.708;2023-02-17T00:29:15;96393.75;;;7.98;58.99
1832;BME280;1680;48.106;11.708;2023-02-17T00:31:44;96327.22;;;7.59;59.13
1832;BME280;1680;48.106;11.708;2023-02-17T00:34:12;96389.34;;;7.98;58.61
1832;BME280;1680;48.106;11.708;2023-02-17T00:36:40;96388.34;;;7.99;59.33
1832;BME280;1680;48.106;11.708;2023-02-17T00:39:07;96394.31;;;7.93;59.54
1832;BME280;1680;48.106;11.708;2023-02-17T00:41:35;96394.50;;;7.92;59.55
1832;BME280;1680;48.106;11.708;2023-02-17T00:44:02;96396.28;;;7.91;59.67
1832;BME280;1680;48.106;11.708;2023-02-17T00:46:29;96388.66;;;7.90;59.59
1832;BME280;1680;48.106;11.708;2023-02-17T00:48:58;96388.44;;;7.91;59.36
1832;BME280;1680;48.106;11.708;2023-02-17T00:51:26;96384.56;;;7.87;59.31
1832;BME280;1680;48.106;11.708;2023-02-17T00:53:53;96386.91;;;7.97;59.15
1832;BME280;1680;48.106;11.708;2023-02-17T00:56:20;96410.94;;;8.07;59.19
1832;BME280;1680;48.106;11.708;2023-02-17T00:58:48;96383.50;;;7.96;59.81
1832;BME280;1680;48.106;11.708;2023-02-17T01:01:15;96379.88;;;7.97;59.60
1832;BME280;1680;48.106;11.708;2023-02-17T01:03:42;96381.50;;;7.98;59.02
1832;BME280;1680;48.106;11.708;2023-02-17T01:06:18;96382.88;;;7.94;59.07
1832;BME280;1680;48.106;11.708;2023-02-17T01:08:47;96381.63;;;8.11;58.13
1832;BME280;1680;48.106;11.708;2023-02-17T01:11:18;96376.72;;;8.02;59.20
1832;BME280;1680;48.106;11.708;2023-02-17T01:13:45;96383.34;;;8.04;59.23
1832;BME280;1680;48.106;11.708;2023-02-17T01:16:17;96380.13;;;8.02;59.29
1832;BME280;1680;48.106;11.708;2023-02-17T01:18:44;96379.53;;;8.00;59.45
1832;BME280;1680;48.106;11.708;2023-02-17T01:21:17;96379.25;;;7.95;59.04
1832;BME280;1680;48.106;11.708;2023-02-17T01:23:47;96378.94;;;7.84;59.84
1832;BME280;1680;48.106;11.708;2023-02-17T01:26:15;96376.31;;;7.84;59.65
1832;BME280;1680;48.106;11.708;2023-02-17T01:28:44;96377.63;;;7.94;58.51
1832;BME280;1680;48.106;11.708;2023-02-17T01:31:12;96373.72;;;7.84;59.22
1832;BME280;1680;48.106;11.708;2023-02-17T01:33:39;96373.84;;;7.76;60.37
1832;BME280;1680;48.106;11.708;2023-02-17T01:36:08;96375.97;;;7.72;60.06
1832;BME280;1680;48.106;11.708;2023-02-17T01:38:38;96366.66;;;7.64;60.39
1832;BME280;1680;48.106;11.708;2023-02-17T01:41:07;96366.38;;;7.59;60.66
1832;BME280;1680;48.106;11.708;2023-02-17T01:43:35;96358.41;;;7.46;60.70
1832;BME280;1680;48.106;11.708;2023-02-17T01:46:03;96365.03;;;7.63;60.55
1832;BME280;1680;48.106;11.708;2023-02-17T01:48:34;96369.28;;;7.49;60.87
1832;BME280;1680;48.106;11.708;2023-02-17T01:51:06;96352.25;;;7.32;61.08
1832;BME280;1680;48.106;11.708;2023-02-17T01:53:40;96362.63;;;7.47;60.61
1832;BME280;1680;48.106;11.708;2023-02-17T01:56:09;96367.59;;;7.42;61.84
1832;BME280;1680;48.106;11.708;2023-02-17T01:58:39;96359.41;;;7.45;60.75
1832;BME280;1680;48.106;11.708;2023-02-17T02:01:08;96371.22;;;7.41;60.96
1832;BME280;1680;48.106;11.708;2023-02-17T02:03:36;96355.72;;;7.54;60.65
1832;BME280;1680;48.106;11.708;2023-02-17T02:06:07;96363.69;;;7.52;60.74
1832;BME280;1680;48.106;11.708;2023-02-17T02:08:43;96357.91;;;7.57;60.32
1832;BME280;1680;48.106;11.708;2023-02-17T02:11:13;96300.16;;;7.24;60.97
1832;BME280;1680;48.106;11.708;2023-02-17T02:13:41;96292.59;;;7.15;60.53
1832;BME280;1680;48.106;11.708;2023-02-17T02:16:13;96361.44;;;7.64;60.54
1832;BME280;1680;48.106;11.708;2023-02-17T02:18:49;96353.78;;;7.62;60.04
1832;BME280;1680;48.106;11.708;2023-02-17T02:21:43;96362.69;;;7.68;61.01
1832;BME280;1680;48.106;11.708;2023-02-17T02:24:20;96354.50;;;7.70;60.41
1832;BME280;1680;48.106;11.708;2023-02-17T02:27:27;96238.25;;;6.97;61.10
1832;BME280;1680;48.106;11.708;2023-02-17T02:30:25;96362.56;;;7.75;61.41
1832;BME280;1680;48.106;11.708;2023-02-17T02:33:06;96299.75;;;7.42;61.50
1832;BME280;1680;48.106;11.708;2023-02-17T02:35:43;96363.38;;;7.76;62.64
1832;BME280;1680;48.106;11.708;2023-02-17T02:38:15;96350.34;;;7.76;62.40
1832;BME280;1680;48.106;11.708;2023-02-17T02:40:46;96363.19;;;7.77;62.84
1832;BME280;1680;48.106;11.708;2023-02-17T02:43:16;96375.25;;;7.78;62.65
1832;BME280;1680;48.106;11.708;2023-02-17T02:45:43;96370.03;;;7.78;62.88
1832;BME280;1680;48.106;11.708;2023-02-17T02:48:12;96365.06;;;7.83;62.70
1832;BME280;1680;48.106;11.708;2023-02-17T02:50:52;96330.97;;;7.50;63.19
1832;BME280;1680;48.106;11.708;2023-02-17T02:53:36;96370.16;;;7.70;63.35
1832;BME280;1680;48.106;11.708;2023-02-17T02:56:12;96372.78;;;7.70;62.81
1832;BME280;1680;48.106;11.708;2023-02-17T02:58:46;96354.50;;;7.70;64.04
1832;BME280;1680;48.106;11.708;2023-02-17T03:01:22;96353.88;;;7.68;63.81
1832;BME280;1680;48.106;11.708;2023-02-17T03:04:03;96358.59;;;7.79;63.77
1832;BME280;1680;48.106;11.708;2023-02-17T03:06:38;96351.13;;;7.76;64.30
1832;BME280;1680;48.106;11.708;2023-02-17T03:09:10;96349.50;;;7.75;64.82
1832;BME280;1680;48.106;11.708;2023-02-17T03:11:40;96345.91;;;7.76;65.13
1832;BME280;1680;48.106;11.708;2023-02-17T03:14:09;96341.94;;;7.80;64.87
1832;BME280;1680;48.106;11.708;2023-02-17T03:16:37;96346.81;;;7.83;64.11
1832;BME280;1680;48.106;11.708;2023-02-17T03:19:07;96332.00;;;7.90;61.80
1832;BME280;1680;48.106;11.708;2023-02-17T03:21:37;96341.28;;;7.93;61.89
1832;BME280;1680;48.106;11.708;2023-02-17T03:24:06;96284.31;;;7.61;60.84
1832;BME280;1680;48.106;11.708;2023-02-17T03:26:34;96328.38;;;7.91;61.11
1832;BME280;1680;48.106;11.708;2023-02-17T03:29:02;96266.72;;;7.69;60.20
1832;BME280;1680;48.106;11.708;2023-02-17T03:31:30;96324.53;;;8.08;61.09
1832;BME280;1680;48.106;11.708;2023-02-17T03:33:57;96337.97;;;8.05;60.77
1832;BME280;1680;48.106;11.708;2023-02-17T03:36:26;96321.69;;;8.24;58.54
1832;BME280;1680;48.106;11.708;2023-02-17T03:38:54;96338.09;;;8.39;59.12
1832;BME280;1680;48.106;11.708;2023-02-17T03:41:22;96341.69;;;8.38;58.37
1832;BME280;1680;48.106;11.708;2023-02-17T03:43:49;96326.75;;;8.32;59.26
1832;BME280;1680;48.106;11.708;2023-02-17T03:46:17;96327.38;;;8.34;59.07
1832;BME280;1680;48.106;11.708;2023-02-17T03:48:44;96322.69;;;8.23;59.18
1832;BME280;1680;48.106;11.708;2023-02-17T03:51:14;96326.03;;;8.38;58.30
1832;BME280;1680;48.106;11.708;2023-02-17T03:53:44;96327.25;;;8.42;58.56
1832;BME280;1680;48.106;11.708;2023-02-17T03:56:12;96329.72;;;8.50;57.98
1832;BME280;1680;48.106;11.708;2023-02-17T03:58:40;96327.00;;;8.58;58.20
1832;BME280;1680;48.106;11.708;2023-02-17T04:01:10;96320.97;;;8.64;56.84
1832;BME280;1680;48.106;11.708;2023-02-17T04:03:38;96307.84;;;8.85;56.57
1832;BME280;1680;48.106;11.708;2023-02-17T04:06:07;96314.50;;;8.87;56.17
1832;BME280;1680;48.106;11.708;2023-02-17T04:08:34;96316.69;;;8.84;56.07
1832;BME280;1680;48.106;11.708;2023-02-17T04:11:04;96322.31;;;8.81;56.27
1832;BME280;1680;48.106;11.708;2023-02-17T04:13:32;96319.50;;;8.82;57.08
1832;BME280;1680;48.106;11.708;2023-02-17T04:16:01;96317.06;;;8.81;56.19
1832;BME280;1680;48.106;11.708;2023-02-17T04:18:29;96260.06;;;8.36;56.50
1832;BME280;1680;48.106;11.708;2023-02-17T04:20:57;96320.59;;;8.67;57.42
1832;BME280;1680;48.106;11.708;2023-02-17T04:23:24;96255.75;;;8.50;57.10
1832;BME280;1680;48.106;11.708;2023-02-17T04:25:52;96313.88;;;8.85;55.82
1832;BME280;1680;48.106;11.708;2023-02-17T04:28:21;96316.22;;;8.74;57.07
1832;BME280;1680;48.106;11.708;2023-02-17T04:30:49;96312.22;;;8.78;56.35
1832;BME280;1680;48.106;11.708;2023-02-17T04:33:17;96309.00;;;8.76;56.80
1832;BME280;1680;48.106;11.708;2023-02-17T04:35:45;96310.03;;;8.81;56.32
1832;BME280;1680;48.106;11.708;2023-02-17T04:38:13;96318.44;;;9.11;55.34
1832;BME280;1680;48.106;11.708;2023-02-17T04:40:41;96308.34;;;9.08;55.04
1832;BME280;1680;48.106;11.708;2023-02-17T04:43:09;96305.88;;;8.93;56.04
1832;BME280;1680;48.106;11.708;2023-02-17T04:45:37;96307.22;;;8.83;56.34
1832;BME280;1680;48.106;11.708;2023-02-17T04:48:05;96307.97;;;8.77;57.44
1832;BME280;1680;48.106;11.708;2023-02-17T04:50:32;96315.75;;;8.98;55.84
1832;BME280;1680;48.106;11.708;2023-02-17T04:52:59;96301.06;;;8.97;56.19
1832;BME280;1680;48.106;11.708;2023-02-17T04:55:27;96303.34;;;9.13;55.88
1832;BME280;1680;48.106;11.708;2023-02-17T04:57:54;96302.38;;;9.20;55.29
1832;BME280;1680;48.106;11.708;2023-02-17T05:00:22;96296.56;;;9.25;55.36
1832;BME280;1680;48.106;11.708;2023-02-17T05:02:51;96297.13;;;9.14;55.44
1832;BME280;1680;48.106;11.708;2023-02-17T05:05:18;96242.06;;;8.88;54.92
1832;BME280;1680;48.106;11.708;2023-02-17T05:07:46;96277.84;;;9.28;54.93
1832;BME280;1680;48.106;11.708;2023-02-17T05:10:14;96275.50;;;9.46;54.01
1832;BME280;1680;48.106;11.708;2023-02-17T05:12:42;96280.13;;;9.44;54.13
1832;BME280;1680;48.106;11.708;2023-02-17T05:15:10;96280.75;;;9.52;54.44
1832;BME280;1680;48.106;11.708;2023-02-17T05:17:38;96215.41;;;9.12;53.80
1832;BME280;1680;48.106;11.708;2023-02-17T05:20:08;96268.06;;;9.56;53.75
1832;BME280;1680;48.106;11.708;2023-02-17T05:22:36;96269.28;;;9.47;53.67
1832;BME280;1680;48.106;11.708;2023-02-17T05:25:04;96281.38;;;9.61;53.64
1832;BME280;1680;48.106;11.708;2023-02-17T05:27:32;96279.56;;;9.67;53.41
1832;BME280;1680;48.106;11.708;2023-02-17T05:29:59;96265.84;;;9.53;54.12
1832;BME280;1680;48.106;11.708;2023-02-17T05:32:27;96269.53;;;9.77;52.85
1832;BME280;1680;48.106;11.708;2023-02-17T05:34:54;96202.59;;;9.36;52.86
1832;BME280;1680;48.106;11.708;2023-02-17T05:37:23;96253.00;;;9.77;52.84
1832;BME280;1680;48.106;11.708;2023-02-17T05:39:50;96266.50;;;9.74;52.94
1832;BME280;1680;48.106;11.708;2023-02-17T05:42:18;96265.09;;;9.71;53.15
1832;BME280;1680;48.106;11.708;2023-02-17T05:44:45;96275.97;;;9.81;52.56
1832;BME280;1680;48.106;11.708;2023-02-17T05:47:13;96272.19;;;9.90;52.79
1832;BME280;1680;48.106;11.708;2023-02-17T05:49:40;96176.38;;;9.17;52.80
1832;BME280;1680;48.106;11.708;2023-02-17T05:52:07;96278.81;;;9.93;53.14
1832;BME280;1680;48.106;11.708;2023-02-17T05:54:36;96278.84;;;9.99;52.62
1832;BME280;1680;48.106;11.708;2023-02-17T05:57:03;96286.88;;;9.91;52.71
1832;BME280;1680;48.106;11.708;2023-02-17T05:59:31;96280.22;;;9.82;52.46
1832;BME280;1680;48.106;11.708;2023-02-17T06:01:58;96283.63;;;9.76;52.75
1832;BME280;1680;48.106;11.708;2023-02-17T06:04:25;96276.38;;;9.65;53.11
1832;BME280;1680;48.106;11.708;2023-02-17T06:06:53;96273.34;;;9.68;52.85
1832;BME280;1680;48.106;11.708;2023-02-17T06:09:20;96281.63;;;9.78;52.79
1832;BME280;1680;48.106;11.708;2023-02-17T06:11:49;96280.03;;;9.77;52.89
1832;BME280;1680;48.106;11.708;2023-02-17T06:14:17;96279.22;;;9.83;52.29
1832;BME280;1680;48.106;11.708;2023-02-17T06:16:45;96276.59;;;9.96;51.68
1832;BME280;1680;48.106;11.708;2023-02-17T06:19:12;96284.09;;;9.99;51.77
1832;BME280;1680;48.106;11.708;2023-02-17T06:21:39;96269.59;;;10.03;51.67
1832;BME280;1680;48.106;11.708;2023-02-17T06:24:07;96285.75;;;10.26;51.44
1832;BME280;1680;48.106;11.708;2023-02-17T06:26:34;96285.31;;;10.16;51.12
1832;BME280;1680;48.106;11.708;2023-02-17T06:29:05;96287.53;;;10.13;51.63
1832;BME280;1680;48.106;11.708;2023-02-17T06:31:32;96290.97;;;10.07;51.65
1832;BME280;1680;48.106;11.708;2023-02-17T06:34:00;96282.91;;;10.15;51.82
1832;BME280;1680;48.106;11.708;2023-02-17T06:36:27;96287.72;;;10.11;51.99
1832;BME280;1680;48.106;11.708;2023-02-17T06:38:54;96298.81;;;10.13;52.38
1832;BME280;1680;48.106;11.708;2023-02-17T06:41:22;96312.16;;;10.25;52.25
1832;BME280;1680;48.106;11.708;2023-02-17T06:43:49;96307.13;;;10.30;55.29
1832;BME280;1680;48.106;11.708;2023-02-17T06:46:18;96300.66;;;10.19;57.03
1832;BME280;1680;48.106;11.708;2023-02-17T06:48:45;96249.75;;;9.68;58.48
1832;BME280;1680;48.106;11.708;2023-02-17T06:51:12;96295.19;;;10.14;58.17
1832;BME280;1680;48.106;11.708;2023-02-17T06:53:39;96302.66;;;10.17;58.75
1832;BME280;1680;48.106;11.708;2023-02-17T06:56:07;96303.88;;;10.21;59.51
1832;BME280;1680;48.106;11.708;2023-02-17T06:58:35;96289.56;;;10.11;59.24
1832;BME280;1680;48.106;11.708;2023-02-17T07:01:03;96295.81;;;10.10;59.52
1832;BME280;1680;48.106;11.708;2023-02-17T07:03:34;96291.78;;;10.07;60.73
1832;BME280;1680;48.106;11.708;2023-02-17T07:06:01;96295.81;;;10.10;59.66
1832;BME280;1680;48.106;11.708;2023-02-17T07:08:29;96298.25;;;10.31;59.12
1832;BME280;1680;48.106;11.708;2023-02-17T07:10:56;96281.69;;;10.43;58.04
1832;BME280;1680;48.106;11.708;2023-02-17T07:13:23;96284.91;;;10.32;58.44
1832;BME280;1680;48.106;11.708;2023-02-17T07:15:50;96290.56;;;10.42;58.96
1832;BME280;1680;48.106;11.708;2023-02-17T07:18:18;96283.69;;;10.67;58.45
1832;BME280;1680;48.106;11.708;2023-02-17T07:20:46;96280.47;;;10.52;59.24
1832;BME280;1680;48.106;11.708;2023-02-17T07:23:27;96282.09;;;10.47;60.22
1832;BME280;1680;48.106;11.708;2023-02-17T07:25:54;96287.72;;;10.63;60.08
1832;BME280;1680;48.106;11.708;2023-02-17T07:28:21;96292.75;;;10.77;59.71
1832;BME280;1680;48.106;11.708;2023-02-17T07:30:49;96298.19;;;10.82;59.88
1832;BME280;1680;48.106;11.708;2023-02-17T07:33:16;96308.66;;;10.89;59.51
1832;BME280;1680;48.106;11.708;2023-02-17T07:35:43;96303.00;;;10.92;60.58
1832;BME280;1680;48.106;11.708;2023-02-17T07:38:11;96302.59;;;11.01;59.94
1832;BME280;1680;48.106;11.708;2023-02-17T07:40:40;96310.88;;;10.98;60.25
1832;BME280;1680;48.106;11.708;2023-02-17T07:43:07;96290.25;;;11.15;59.24
1832;BME280;1680;48.106;11.708;2023-02-17T07:45:34;96300.84;;;11.33;59.28
1832;BME280;1680;48.106;11.708;2023-02-17T07:48:02;96251.69;;;11.02;58.99
1832;BME280;1680;48.106;11.708;2023-02-17T07:50:29;96294.44;;;11.29;59.40
1832;BME280;1680;48.106;11.708;2023-02-17T07:52:56;96303.22;;;11.47;58.79
1832;BME280;1680;48.106;11.708;2023-02-17T07:55:24;96302.84;;;11.44;59.04
1832;BME280;1680;48.106;11.708;2023-02-17T07:57:52;96305.25;;;11.45;59.09
1832;BME280;1680;48.106;11.708;2023-02-17T08:00:20;96294.38;;;11.42;59.20
1832;BME280;1680;48.106;11.708;2023-02-17T08:02:47;96305.59;;;11.61;58.46
1832;BME280;1680;48.106;11.708;2023-02-17T08:05:14;96251.41;;;11.30;58.97
1832;BME280;1680;48.106;11.708;2023-02-17T08:07:42;96302.97;;;11.61;59.20
1832;BME280;1680;48.106;11.708;2023-02-17T08:10:10;96296.94;;;11.61;58.63
1832;BME280;1680;48.106;11.708;2023-02-17T08:13:07;96315.09;;;11.62;58.96
1832;BME280;1680;48.106;11.708;2023-02-17T08:15:46;96288.59;;;11.70;59.73
1832;BME280;1680;48.106;11.708;2023-02-17T08:18:14;96297.56;;;11.57;60.66
1832;BME280;1680;48.106;11.708;2023-02-17T08:20:41;96316.09;;;11.68;60.11
1832;BME280;1680;48.106;11.708;2023-02-17T08:23:08;96307.75;;;11.77;60.26
1832;BME280;1680;48.106;11.708;2023-02-17T08:25:35;96286.41;;;11.61;60.00
1832;BME280;1680;48.106;11.708;2023-02-17T08:28:04;96315.13;;;11.93;60.34
1832;BME280;1680;48.106;11.708;2023-02-17T08:30:35;96324.22;;;11.97;60.20
1832;BME280;1680;48.106;11.708;2023-02-17T08:33:03;96312.59;;;12.11;59.80
1832;BME280;1680;48.106;11.708;2023-02-17T08:35:30;96303.09;;;12.10;60.13
1832;BME280;1680;48.106;11.708;2023-02-17T08:37:58;96313.09;;;12.26;59.51
1832;BME280;1680;48.106;11.708;2023-02-17T08:40:25;96314.03;;;12.38;59.69
1832;BME280;1680;48.106;11.708;2023-02-17T08:42:52;96322.19;;;12.30;59.92
1832;BME280;1680;48.106;11.708;2023-02-17T08:45:19;96261.44;;;11.83;60.26
1832;BME280;1680;48.106;11.708;2023-02-17T08:47:49;96310.56;;;12.13;60.98
1832;BME280;1680;48.106;11.708;2023-02-17T08:50:17;96317.34;;;12.27;60.25
1832;BME280;1680;48.106;11.708;2023-02-17T08:52:45;96287.50;;;12.15;59.33
1832;BME280;1680;48.106;11.708;2023-02-17T08:55:12;96317.94;;;12.29;60.00
1832;BME280;1680;48.106;11.708;2023-02-17T08:57:43;96321.50;;;12.41;59.76
1832;BME280;1680;48.106;11.708;2023-02-17T09:00:11;96334.66;;;12.41;60.52
1832;BME280;1680;48.106;11.708;2023-02-17T09:02:38;96324.94;;;12.42;60.73
1832;BME280;1680;48.106;11.708;2023-02-17T09:05:09;96317.06;;;12.42;61.74
1832;BME280;1680;48.106;11.708;2023-02-17T09:07:38;96296.13;;;12.22;61.17
1832;BME280;1680;48.106;11.708;2023-02-17T09:10:07;96297.06;;;12.34;61.07
1832;BME280;1680;48.106;11.708;2023-02-17T09:12:35;96321.97;;;12.32;61.95
1832;BME280;1680;48.106;11.708;2023-02-17T09:15:02;96332.66;;;12.37;62.10
1832;BME280;1680;48.106;11.708;2023-02-17T09:17:29;96316.50;;;12.33;62.36
1832;BME280;1680;48.106;11.708;2023-02-17T09:19:57;96333.44;;;12.37;62.93
1832;BME280;1680;48.106;11.708;2023-02-17T09:22:25;96340.78;;;12.35;62.81
1832;BME280;1680;48.106;11.708;2023-02-17T09:24:53;96350.00;;;12.44;64.21
1832;BME280;1680;48.106;11.708;2023-02-17T09:27:20;96336.81;;;12.20;68.36
1832;BME280;1680;48.106;11.708;2023-02-17T09:29:47;96345.31;;;11.84;69.65
1832;BME280;1680;48.106;11.708;2023-02-17T09:32:14;96351.47;;;11.65;72.83
1832;BME280;1680;48.106;11.708;2023-02-17T09:34:42;96358.88;;;11.81;72.13
1832;BME280;1680;48.106;11.708;2023-02-17T09:37:15;96345.56;;;11.76;72.39
1832;BME280;1680;48.106;11.708;2023-02-17T09:39:44;96354.03;;;11.78;71.78
1832;BME280;1680;48.106;11.708;2023-02-17T09:42:16;96352.78;;;11.87;70.51
1832;BME280;1680;48.106;11.708;2023-02-17T09:44:48;96351.47;;;12.03;69.14
1832;BME280;1680;48.106;11.708;2023-02-17T09:47:20;96354.72;;;12.05;69.39
1832;BME280;1680;48.106;11.708;2023-02-17T09:49:52;96342.44;;;12.23;68.77
1832;BME280;1680;48.106;11.708;2023-02-17T09:52:25;96370.63;;;12.47;67.28
1832;BME280;1680;48.106;11.708;2023-02-17T09:55:01;96335.06;;;12.38;67.16
1832;BME280;1680;48.106;11.708;2023-02-17T09:57:33;96361.28;;;12.51;66.34
1832;BME280;1680;48.106;11.708;2023-02-17T10:00:06;96354.44;;;12.44;66.63
1832;BME280;1680;48.106;11.708;2023-02-17T10:02:39;96351.63;;;12.45;65.76
1832;BME280;1680;48.106;11.708;2023-02-17T10:05:10;96352.59;;;12.51;66.52
1832;BME280;1680;48.106;11.708;2023-02-17T10:07:44;96348.72;;;12.53;64.97
1832;BME280;1680;48.106;11.708;2023-02-17T10:10:17;96351.28;;;12.59;64.97
1832;BME280;1680;48.106;11.708;2023-02-17T10:12:49;96351.22;;;12.66;64.30
1832;BME280;1680;48.106;11.708;2023-02-17T10:15:22;96350.56;;;12.77;64.67
1832;BME280;1680;48.106;11.708;2023-02-17T10:17:56;96349.13;;;12.81;64.36
1832;BME280;1680;48.106;11.708;2023-02-17T10:20:30;96332.19;;;12.95;63.38
1832;BME280;1680;48.106;11.708;2023-02-17T10:23:03;96335.16;;;13.23;62.07
1832;BME280;1680;48.106;11.708;2023-02-17T10:28:47;96330.63;;;13.48;61.33
1832;BME280;1680;48.106;11.708;2023-02-17T10:31:22;96332.50;;;13.58;61.26
1832;BME280;1680;48.106;11.708;2023-02-17T10:33:55;96304.84;;;13.32;61.60
1832;BME280;1680;48.106;11.708;2023-02-17T10:36:35;96346.41;;;13.48;61.11
1832;BME280;1680;48.106;11.708;2023-02-17T10:39:13;96341.88;;;13.19;62.94
1832;BME280;1680;48.106;11.708;2023-02-17T10:41:44;96334.41;;;13.16;62.53
1832;BME280;1680;48.106;11.708;2023-02-17T10:44:18;96331.34;;;13.19;62.29
1832;BME280;1680;48.106;11.708;2023-02-17T10:46:46;96335.28;;;13.28;62.09
1832;BME280;1680;48.106;11.708;2023-02-17T10:49:19;96322.94;;;13.28;61.51
1832;BME280;1680;48.106;11.708;2023-02-17T10:51:48;96325.47;;;13.17;60.73
1832;BME280;1680;48.106;11.708;2023-02-17T10:54:24;96317.59;;;13.35;60.33
1832;BME280;1680;48.106;11.708;2023-02-17T10:56:57;96304.19;;;13.36;60.08
1832;BME280;1680;48.106;11.708;2023-02-17T10:59:28;96329.34;;;13.50;59.92
1832;BME280;1680;48.106;11.708;2023-02-17T11:02:00;96316.41;;;13.66;59.12
1832;BME280;1680;48.106;11.708;2023-02-17T11:04:40;96250.69;;;13.36;58.85
1832;BME280;1680;48.106;11.708;2023-02-17T11:07:10;96300.75;;;13.83;58.41
1832;BME280;1680;48.106;11.708;2023-02-17T11:09:44;96299.97;;;13.82;57.45
1832;BME280;1680;48.106;11.708;2023-02-17T11:12:14;96310.31;;;13.95;58.00
1832;BME280;1680;48.106;11.708;2023-02-17T11:14:44;96298.84;;;14.19;58.13
1832;BME280;1680;48.106;11.708;2023-02-17T11:17:15;96313.91;;;14.30;56.76
1832;BME280;1680;48.106;11.708;2023-02-17T11:19:54;96307.38;;;14.33;57.02
1832;BME280;1680;48.106;11.708;2023-02-17T11:22:31;96306.75;;;14.19;56.99
1832;BME280;1680;48.106;11.708;2023-02-17T11:25:01;96303.91;;;14.21;56.44
1832;BME280;1680;48.106;11.708;2023-02-17T11:27:30;96292.09;;;14.23;56.48
1832;BME280;1680;48.106;11.708;2023-02-17T11:30:07;96291.03;;;14.13;56.64
1832;BME280;1680;48.106;11.708;2023-02-17T11:32:35;96295.19;;;14.20;56.51
1832;BME280;1680;48.106;11.708;2023-02-17T11:35:02;96294.88;;;14.28;56.85
1832;BME280;1680;48.106;11.708;2023-02-17T11:37:36;96298.31;;;14.40;56.22
1832;BME280;1680;48.106;11.708;2023-02-17T11:40:22;96279.25;;;14.15;55.77
1832;BME280;1680;48.106;11.708;2023-02-17T11:42:59;96289.94;;;14.02;56.65
1832;BME280;1680;48.106;11.708;2023-02-17T11:45:31;96245.38;;;13.83;56.74
1832;BME280;1680;48.106;11.708;2023-02-17T11:48:20;96281.41;;;14.18;56.29
1832;BME280;1680;48.106;11.708;2023-02-17T11:50:55;96294.03;;;14.28;55.88
1832;BME280;1680;48.106;11.708;2023-02-17T11:53:36;96278.81;;;14.41;55.74
1832;BME280;1680;48.106;11.708;2023-02-17T11:56:13;96278.94;;;14.35;55.42
1832;BME280;1680;48.106;11.708;2023-02-17T11:58:57;96288.66;;;14.34;56.31
1832;BME280;1680;48.106;11.708;2023-02-17T12:01:43;96224.28;;;14.12;56.13
1832;BME280;1680;48.106;11.708;2023-02-17T12:04:24;96288.94;;;14.44;56.12
1832;BME280;1680;48.106;11.708;2023-02-17T12:07:04;96280.88;;;14.39;56.13
1832;BME280;1680;48.106;11.708;2023-02-17T12:09:46;96275.25;;;14.36;56.71
1832;BME280;1680;48.106;11.708;2023-02-17T12:12:21;96260.44;;;14.23;57.26
1832;BME280;1680;48.106;11.708;2023-02-17T12:15:00;96266.53;;;14.35;56.87
1832;BME280;1680;48.106;11.708;2023-02-17T12:17:44;96249.56;;;14.54;56.67
1832;BME280;1680;48.106;11.708;2023-02-17T12:20:30;96242.31;;;14.38;56.45
1832;BME280;1680;48.106;11.708;2023-02-17T12:23:09;96275.38;;;14.29;57.10
1832;BME280;1680;48.106;11.708;2023-02-17T12:25:45;96251.41;;;14.42;57.35
1832;BME280;1680;48.106;11.708;2023-02-17T12:28:38;96246.13;;;14.65;57.05
1832;BME280;1680;48.106;11.708;2023-02-17T12:31:17;96244.72;;;14.85;56.47
1832;BME280;1680;48.106;11.708;2023-02-17T12:33:56;96246.69;;;14.90;56.25
1832;BME280;1680;48.106;11.708;2023-02-17T12:36:29;96240.47;;;14.84;56.61
1832;BME280;1680;48.106;11.708;2023-02-17T12:39:00;96245.66;;;14.68;56.81
1832;BME280;1680;48.106;11.708;2023-02-17T12:41:32;96250.81;;;14.63;56.89
1832;BME280;1680;48.106;11.708;2023-02-17T12:44:04;96243.03;;;14.45;58.77
1832;BME280;1680;48.106;11.708;2023-02-17T12:46:37;96234.63;;;14.48;58.67
1832;BME280;1680;48.106;11.708;2023-02-17T12:49:09;96249.09;;;14.46;58.52
1832;BME280;1680;48.106;11.708;2023-02-17T12:51:40;96244.59;;;14.46;58.63
1832;BME280;1680;48.106;11.708;2023-02-17T12:54:14;96240.72;;;14.37;59.04
1832;BME280;1680;48.106;11.708;2023-02-17T12:56:58;96236.69;;;14.46;58.50
1832;BME280;1680;48.106;11.708;2023-02-17T12:59:32;96246.81;;;14.38;58.99
1832;BME280;1680;48.106;11.708;2023-02-17T13:02:04;96257.50;;;14.54;59.44
1832;BME280;1680;48.106;11.708;2023-02-17T13:04:33;96261.16;;;14.53;59.68
1832;BME280;1680;48.106;11.708;2023-02-17T13:07:17;96262.38;;;14.28;60.17
1832;BME280;1680;48.106;11.708;2023-02-17T13:09:48;96262.50;;;14.21;60.71
1832;BME280;1680;48.106;11.708;2023-02-17T13:12:37;96244.19;;;14.38;60.47
1832;BME280;1680;48.106;11.708;2023-02-17T13:15:25;96247.38;;;14.28;60.38
1832;BME280;1680;48.106;11.708;2023-02-17T13:17:57;96250.31;;;14.20;60.63
1832;BME280;1680;48.106;11.708;2023-02-17T13:20:40;96225.44;;;14.28;60.88
1832;BME280;1680;48.106;11.708;2023-02-17T13:23:12;96223.34;;;14.18;60.81
1832;BME280;1680;48.106;11.708;2023-02-17T13:25:40;96226.13;;;14.23;60.95
1832;BME280;1680;48.106;11.708;2023-02-17T13:28:31;96254.22;;;14.18;61.14
1832;BME280;1680;48.106;11.708;2023-02-17T13:31:09;96255.53;;;14.09;61.63
1832;BME280;1680;48.106;11.708;2023-02-17T13:33:45;96235.47;;;13.96;61.84
1832;BME280;1680;48.106;11.708;2023-02-17T13:36:16;96238.69;;;14.10;62.19
1832;BME280;1680;48.106;11.708;2023-02-17T13:38:56;96244.25;;;13.90;62.65